KSPW

Spencer Municipal Airport

Spencer, Iowa, USA
METAR KSPW 141853Z AUTO 00000KT 10SM FEW070 BKN100 29/22 A2994 RMK AO2 LTG DSNT N SLP127 T02940217
Observed Flight Rules
Aug-14 @ 18:53 UTC (an hour ago) Visual Flight Rules
Visibility Clouds
10 miles
  • Few at 7,000' AGL
  • Broken at 10,000' AGL
Temperatures Readings
Current 29°C / 84°F
Dewpoint 22°C / 72°F
Humidity 66%
Altimeter 29.94" Hg
Pressure 1012.7 hPa
Elevation 403
METAR KSPW 141853Z AUTO 00000KT 10SM FEW070 BKN100 29/22 A2994 RMK AO2 LTG DSNT N SLP127 T02940217
Observed Flight Rules
Aug-14 @ 18:53 UTC
(an hour ago)
VFR
Clouds
  • Few at 7,000' AGL
  • Broken at 10,000' AGL
Temperature Dewpoint
29°C / 84°F 22°C / 72°F
Humidity Altimeter Pressure
66% 29.94" Hg 1012.7 hPa